Time;durP1;ratioP1;P1;durP2;ratioP2;P2;SDS_P1;SDS_P2;PMS_P1;PMS_P2;Temp;Humidity;BMP_temperature;BMP_pressure;BME280_temperature;BME280_humidity;BME280_pressure;Samples;Min_cycle;Max_cycle;Signal;HPM_P1;HPM_P2
2022/05/20 00:03:31;;;;;;;8.73;4.05;;;;;;;16.64;48.61;100575.67;3319662;86;99078;-82
2022/05/20 00:08:32;;;;;;;13.50;4.42;;;;;;;16.62;48.58;100582.25;3310676;86;98712;-83
2022/05/20 00:13:33;;;;;;;11.23;3.80;;;;;;;16.57;48.64;100582.08;3343247;85;98997;-83
2022/05/20 00:18:35;;;;;;;9.17;4.80;;;;;;;16.55;49.02;100596.20;3342757;85;99073;-84
2022/05/20 00:23:35;;;;;;;8.43;3.50;;;;;;;16.52;49.24;100592.26;3327170;86;98902;-84
2022/05/20 00:28:36;;;;;;;14.10;4.07;;;;;;;16.43;49.93;100591.97;3346912;86;99294;-84
2022/05/20 00:33:38;;;;;;;9.57;3.77;;;;;;;16.37;50.08;100592.79;3335490;86;99314;-84
2022/05/20 00:38:39;;;;;;;7.97;3.77;;;;;;;16.28;50.17;100598.83;3324275;85;99088;-84
2022/05/20 00:43:47;;;;;;;7.90;3.90;;;;;;;16.19;50.53;100584.62;3327882;85;98883;-84
2022/05/20 00:48:59;;;;;;;9.15;3.90;;;;;;;16.14;50.52;100580.13;3344251;86;98880;-83
2022/05/20 00:54:11;;;;;;;11.68;4.45;;;;;;;16.04;51.61;100574.06;3333901;86;99024;-83
2022/05/20 00:59:17;;;;;;;10.05;4.12;;;;;;;15.96;51.86;100578.88;3342378;85;99114;-82
2022/05/20 01:04:20;;;;;;;8.23;3.92;;;;;;;15.90;52.23;100588.05;3340812;86;99124;-83
2022/05/20 01:09:20;;;;;;;9.10;3.35;;;;;;;15.87;52.88;100595.81;3341434;85;33160;-82
2022/05/20 01:14:25;;;;;;;10.43;4.17;;;;;;;15.79;53.06;100589.53;3351191;86;99172;-82
2022/05/20 01:19:31;;;;;;;8.68;3.50;;;;;;;15.71;53.02;100590.79;3350947;86;99313;-82
2022/05/20 01:24:33;;;;;;;6.10;3.12;;;;;;;15.66;53.81;100589.83;3295733;85;98942;-82
2022/05/20 01:29:34;;;;;;;8.30;3.98;;;;;;;15.58;53.53;100586.13;3359207;85;98823;-84
2022/05/20 01:34:35;;;;;;;9.10;3.97;;;;;;;15.47;55.46;100582.02;3298095;87;98832;-82
2022/05/20 01:39:37;;;;;;;9.23;4.13;;;;;;;15.38;55.33;100582.28;3342673;86;28876;-82
2022/05/20 01:44:52;;;;;;;9.97;4.00;;;;;;;15.34;55.47;100576.76;3351879;84;98790;-83
2022/05/20 01:50:02;;;;;;;11.15;3.92;;;;;;;15.30;55.19;100571.80;3344342;86;98761;-84
2022/05/20 01:55:20;;;;;;;10.72;4.10;;;;;;;15.27;54.71;100587.06;3341757;86;99108;-83
2022/05/20 02:00:26;;;;;;;9.25;3.87;;;;;;;15.20;55.80;100578.19;3305138;85;99395;-83
2022/05/20 02:05:38;;;;;;;8.28;4.17;;;;;;;15.13;55.77;100587.93;3332150;86;98846;-83
2022/05/20 02:10:47;;;;;;;7.97;3.85;;;;;;;15.06;56.48;100598.26;3325621;85;101458;-83
2022/05/20 02:15:53;;;;;;;8.38;4.15;;;;;;;14.99;56.74;100601.07;3402076;84;33498;-82
2022/05/20 02:20:59;;;;;;;12.30;4.47;;;;;;;14.87;57.16;100604.29;3333812;85;105657;-83
2022/05/20 02:26:06;;;;;;;10.13;3.65;;;;;;;14.79;57.73;100608.26;3320264;86;99086;-83
2022/05/20 02:31:11;;;;;;;11.65;5.28;;;;;;;14.71;57.58;100598.40;3345344;85;99177;-82
2022/05/20 02:36:33;;;;;;;11.00;4.87;;;;;;;14.67;57.78;100597.61;3356843;85;99442;-83
2022/05/20 02:41:30;;;;;;;10.08;4.87;;;;;;;14.59;58.73;100613.45;3331964;85;99498;-83
2022/05/20 02:46:32;;;;;;;11.53;4.85;;;;;;;14.39;58.94;100584.61;3349861;86;99476;-82
2022/05/20 02:51:33;;;;;;;10.08;4.78;;;;;;;14.45;59.41;100600.23;3325727;86;99099;-84
2022/05/20 02:56:37;;;;;;;9.07;4.60;;;;;;;14.42;60.19;100601.02;3337076;86;98882;-84
2022/05/20 03:06:57;;;;;;;9.05;4.12;;;;;;;14.34;60.05;100602.23;3346557;86;99006;-84
2022/05/20 03:11:58;;;;;;;8.83;4.27;;;;;;;14.33;60.05;100595.90;3311215;86;99163;-83
2022/05/20 03:17:01;;;;;;;11.43;5.27;;;;;;;14.33;60.46;100606.97;3321985;86;98840;-83
2022/05/20 03:22:04;;;;;;;9.65;4.45;;;;;;;14.33;60.43;100606.97;3331009;86;99028;-83
2022/05/20 03:27:06;;;;;;;10.28;4.55;;;;;;;14.35;60.97;100619.05;3358166;86;33701;-84
2022/05/20 03:32:08;;;;;;;12.03;5.22;;;;;;;14.38;61.75;100622.41;3329881;86;99207;-83
2022/05/20 03:37:10;;;;;;;8.18;4.45;;;;;;;14.40;61.77;100630.48;3339815;86;99107;-84
2022/05/20 03:42:11;;;;;;;11.55;4.42;;;;;;;14.44;62.26;100638.82;3349339;85;98775;-83
2022/05/20 03:47:11;;;;;;;8.60;3.70;;;;;;;14.47;63.20;100636.04;3353027;85;99237;-84
2022/05/20 03:52:13;;;;;;;12.03;4.27;;;;;;;14.54;63.10;100647.68;3347234;85;99209;-83
2022/05/20 03:57:14;;;;;;;7.97;4.73;;;;;;;14.60;63.42;100646.89;3315617;86;26122;-83
2022/05/20 04:02:15;;;;;;;9.27;4.23;;;;;;;14.69;64.30;100647.28;3330710;85;98903;-84
2022/05/20 04:07:23;;;;;;;9.13;4.13;;;;;;;14.78;64.43;100655.17;3334723;86;98933;-82
2022/05/20 04:12:32;;;;;;;8.23;4.40;;;;;;;14.89;64.88;100660.86;3331182;86;99340;-82
2022/05/20 04:17:34;;;;;;;10.20;3.87;;;;;;;15.04;66.01;100666.56;3339316;86;98931;-83
2022/05/20 04:22:38;;;;;;;11.70;4.22;;;;;;;15.22;66.68;100670.67;3325982;86;99039;-82
2022/05/20 04:27:39;;;;;;;9.45;3.65;;;;;;;15.41;66.82;100673.78;3352774;85;33428;-82
2022/05/20 04:32:41;;;;;;;5.85;3.70;;;;;;;15.55;67.05;100670.16;3331998;85;98841;-83
2022/05/20 04:37:42;;;;;;;7.93;3.87;;;;;;;15.70;67.21;100683.53;3309491;85;98855;-83
2022/05/20 04:48:02;;;;;;;7.50;3.70;;;;;;;16.12;68.15;100710.23;3335413;86;99316;-83
2022/05/20 04:53:03;;;;;;;11.83;4.40;;;;;;;16.32;68.00;100709.89;3317530;86;99045;-81
2022/05/20 04:58:04;;;;;;;7.87;3.87;;;;;;;16.50;67.61;100703.03;3334286;85;99155;-81
2022/05/20 05:03:05;;;;;;;7.67;3.67;;;;;;;16.74;67.66;100706.17;3328108;86;98883;-82
2022/05/20 05:08:06;;;;;;;7.27;3.73;;;;;;;16.95;67.55;100707.36;3336221;86;98841;-82
2022/05/20 05:13:09;;;;;;;7.63;4.00;;;;;;;17.18;67.90;100711.70;3327485;86;98852;-82
2022/05/20 05:18:14;;;;;;;23.07;4.90;;;;;;;17.35;67.35;100704.33;3337524;85;98966;-82
2022/05/20 05:23:15;;;;;;;9.78;3.90;;;;;;;17.53;67.23;100712.68;3338069;86;99259;-82
2022/05/20 05:28:18;;;;;;;8.03;3.70;;;;;;;17.84;67.42;100707.30;3287790;86;98972;-82
2022/05/20 05:33:21;;;;;;;9.05;4.20;;;;;;;18.28;67.10;100719.58;3320236;86;99534;-82
2022/05/20 05:38:21;;;;;;;10.35;4.33;;;;;;;18.85;66.74;100721.61;3334413;86;99103;-82
2022/05/20 05:43:23;;;;;;;9.63;5.00;;;;;;;19.49;66.24;100718.41;3303474;86;99086;-83
2022/05/20 05:48:23;;;;;;;8.10;4.27;;;;;;;20.14;65.16;100720.99;3352316;85;98879;-80
2022/05/20 05:53:25;;;;;;;8.93;4.17;;;;;;;20.69;64.28;100702.66;3345295;85;99628;-82
2022/05/20 05:58:28;;;;;;;9.20;3.97;;;;;;;21.32;63.17;100726.77;3331466;86;99500;-82
2022/05/20 06:03:30;;;;;;;10.38;3.98;;;;;;;21.78;62.77;100723.44;3327128;86;99093;-79
2022/05/20 06:08:31;;;;;;;9.05;3.92;;;;;;;22.38;62.33;100723.14;3351350;85;98785;-82
2022/05/20 06:13:32;;;;;;;9.18;3.92;;;;;;;22.97;61.59;100723.17;3331108;86;99423;-82
2022/05/20 06:18:34;;;;;;;7.80;3.58;;;;;;;23.51;60.88;100734.89;3347738;84;99157;-81
2022/05/20 06:23:35;;;;;;;6.85;3.92;;;;;;;24.10;60.29;100736.67;3330651;86;98952;-81
2022/05/20 06:28:36;;;;;;;8.48;3.42;;;;;;;24.72;59.11;100739.56;3329489;86;98861;-82
2022/05/20 06:33:38;;;;;;;10.08;3.50;;;;;;;24.88;57.30;100740.08;3341233;85;98629;-82
2022/05/20 06:43:58;;;;;;;7.83;3.58;;;;;;;25.26;56.33;100756.57;3342120;86;98708;-82
2022/05/20 06:49:01;;;;;;;7.03;4.05;;;;;;;25.37;55.55;100756.88;3330737;86;99268;-81
2022/05/20 06:54:05;;;;;;;7.85;4.10;;;;;;;25.43;54.74;100757.20;3342527;85;99259;-82
2022/05/20 06:59:08;;;;;;;6.53;3.37;;;;;;;25.58;54.70;100756.73;3360531;85;99364;-82
2022/05/20 07:04:09;;;;;;;11.33;4.08;;;;;;;25.95;54.03;100767.34;3357367;85;98953;-81
2022/05/20 07:09:10;;;;;;;7.70;3.42;;;;;;;26.31;52.93;100765.83;3351985;85;33541;-81
2022/05/20 07:14:11;;;;;;;8.03;3.95;;;;;;;26.39;52.68;100772.69;3358333;85;98962;-83
2022/05/20 07:19:11;;;;;;;8.73;3.20;;;;;;;26.48;52.51;100771.24;3362399;85;99129;-82
2022/05/20 07:24:13;;;;;;;14.18;4.58;;;;;;;26.58;52.10;100772.77;3343128;85;99000;-80
2022/05/20 07:29:14;;;;;;;5.72;3.62;;;;;;;26.62;51.73;100765.70;3368220;85;99348;-81
2022/05/20 07:34:14;;;;;;;7.00;3.83;;;;;;;26.33;51.42;100775.36;3329330;85;98836;-82
2022/05/20 07:39:15;;;;;;;8.50;4.08;;;;;;;25.85;52.13;100773.61;3360862;86;32125;-82
2022/05/20 07:44:16;;;;;;;7.30;4.22;;;;;;;25.44;52.53;100775.67;3324933;85;99045;-82
2022/05/20 07:49:17;;;;;;;6.67;4.20;;;;;;;24.92;53.33;100770.29;3334541;85;99422;-81
2022/05/20 07:54:25;;;;;;;7.53;4.35;;;;;;;24.75;54.35;100770.38;3337666;86;99313;-82
2022/05/20 07:59:30;;;;;;;7.42;4.55;;;;;;;24.76;54.53;100776.20;3341294;86;99211;-83
2022/05/20 08:04:55;;;;;;;8.35;4.03;;;;;;;24.85;55.03;100779.66;3332015;86;99113;-82
2022/05/20 08:09:57;;;;;;;8.03;4.20;;;;;;;25.14;55.27;100777.98;3313780;86;25882;-83
2022/05/20 08:14:58;;;;;;;8.30;4.05;;;;;;;25.34;54.17;100776.92;3348241;85;99173;-79
2022/05/20 08:19:59;;;;;;;9.05;3.70;;;;;;;25.57;53.82;100786.17;3343669;86;98790;-81
2022/05/20 08:25:00;;;;;;;10.43;4.17;;;;;;;26.19;53.28;100786.55;3332938;85;98935;-82
2022/05/20 08:30:10;;;;;;;7.55;4.37;;;;;;;26.72;52.57;100774.91;3340893;86;99561;-81
2022/05/20 08:35:11;;;;;;;7.90;3.75;;;;;;;26.86;51.26;100782.69;3309853;86;98948;-82
2022/05/20 08:40:29;;;;;;;7.75;3.65;;;;;;;27.25;50.96;100777.27;3314561;86;98886;-83
2022/05/20 08:45:32;;;;;;;10.03;4.00;;;;;;;27.59;49.41;100776.66;3345065;85;98927;-81
2022/05/20 08:50:47;;;;;;;8.48;3.95;;;;;;;27.64;49.66;100788.71;3319017;86;98972;-82
2022/05/20 08:55:48;;;;;;;10.75;4.40;;;;;;;28.08;48.02;100790.34;3350548;85;98761;-80
2022/05/20 09:00:50;;;;;;;7.40;4.23;;;;;;;28.35;47.49;100777.30;3311137;86;99449;-81
2022/05/20 09:06:08;;;;;;;10.85;5.20;;;;;;;28.84;47.80;100777.93;3339707;85;98858;-81
2022/05/20 09:11:18;;;;;;;7.28;4.05;;;;;;;29.49;45.77;100770.95;3314257;86;99601;-81
2022/05/20 09:16:35;;;;;;;6.08;4.00;;;;;;;29.65;45.01;100759.02;3326894;85;99229;-83
2022/05/20 09:21:41;;;;;;;7.62;3.50;;;;;;;30.27;43.78;100774.74;3327957;85;98868;-82
2022/05/20 09:27:07;;;;;;;7.20;4.30;;;;;;;30.23;43.10;100773.42;3321385;86;98722;-82
2022/05/20 09:32:31;;;;;;;6.50;4.33;;;;;;;30.31;43.21;100780.19;3339015;85;99040;-81
2022/05/20 09:37:38;;;;;;;9.25;3.95;;;;;;;30.89;41.51;100783.20;3333685;85;98714;-84
2022/05/20 09:42:57;;;;;;;12.60;4.65;;;;;;;30.73;41.99;100781.03;3316156;86;99460;-81
2022/05/20 09:48:00;;;;;;;10.20;4.50;;;;;;;30.58;41.71;100773.31;3322201;86;99430;-82
2022/05/20 09:53:28;;;;;;;5.28;3.70;;;;;;;30.60;41.54;100772.15;3326457;86;99184;-81
2022/05/20 09:58:31;;;;;;;7.72;4.03;;;;;;;30.52;41.45;100771.70;3353800;85;98972;-81
2022/05/20 10:03:46;;;;;;;9.95;3.55;;;;;;;30.46;39.97;100766.63;3296010;87;99213;-81
2022/05/20 10:09:26;;;;;;;6.10;3.50;;;;;;;30.19;39.37;100755.83;3327281;86;98945;-81
2022/05/20 10:14:56;;;;;;;7.85;4.28;;;;;;;30.07;39.98;100750.66;3253004;86;99080;-82
2022/05/20 10:20:16;;;;;;;9.50;3.40;;;;;;;30.28;39.59;100736.53;3347100;85;98615;-83
2022/05/20 10:25:30;;;;;;;7.47;3.22;;;;;;;30.41;39.21;100742.55;3305689;86;98977;-83
2022/05/20 10:36:17;;;;;;;7.70;3.40;;;;;;;30.52;39.18;100726.25;3338817;85;99526;-83
2022/05/20 10:41:50;;;;;;;6.83;3.25;;;;;;;30.61;37.45;100724.61;3336169;86;99143;-81
2022/05/20 10:52:31;;;;;;;7.60;2.72;;;;;;;31.18;37.83;100730.23;3337841;85;99386;-81
2022/05/20 10:58:08;;;;;;;5.65;3.02;;;;;;;31.54;36.38;100731.41;3340003;86;25947;-83
2022/05/20 11:04:03;;;;;;;7.22;2.98;;;;;;;31.47;35.51;100730.47;3324754;85;99152;-84
2022/05/20 11:09:22;;;;;;;7.03;3.12;;;;;;;31.44;35.18;100710.94;3334928;86;98779;-82
2022/05/20 11:14:34;;;;;;;12.33;3.47;;;;;;;31.53;35.15;100718.45;3310882;86;99126;-84
2022/05/20 11:19:55;;;;;;;8.78;3.17;;;;;;;31.26;34.62;100715.68;3323053;85;99003;-83
2022/05/20 11:25:11;;;;;;;5.40;3.00;;;;;;;31.19;34.94;100704.80;3307179;87;99155;-84
2022/05/20 11:30:34;;;;;;;4.17;3.02;;;;;;;31.27;35.18;100704.42;3331927;86;99606;-83
2022/05/20 11:35:59;;;;;;;5.28;3.10;;;;;;;31.71;35.42;100689.52;3324696;86;98923;-84
2022/05/20 11:41:19;;;;;;;;;;;;;;;31.74;35.44;100689.92;3338622;86;98985;-84
2022/05/20 11:46:57;;;;;;;4.67;3.12;;;;;;;32.01;33.84;100684.89;3325055;86;26150;-82
2022/05/20 11:52:27;;;;;;;5.55;3.52;;;;;;;32.20;35.09;100668.16;3341803;86;98581;-81
2022/05/20 11:57:38;;;;;;;4.90;3.25;;;;;;;32.50;34.08;100656.36;3345787;84;98765;-81
2022/05/20 12:03:02;;;;;;;6.08;3.62;;;;;;;31.85;33.55;100647.23;3344886;86;99186;-82
2022/05/20 12:08:04;;;;;;;6.85;2.95;;;;;;;32.21;34.74;100646.92;3340040;85;98941;-82
2022/05/20 12:13:23;;;;;;;6.90;3.35;;;;;;;32.35;34.10;100647.33;3331310;85;98974;-84
2022/05/20 12:24:21;;;;;;;6.03;2.87;;;;;;;32.26;33.00;100632.59;3319526;86;98922;-83
2022/05/20 12:29:43;;;;;;;5.53;2.72;;;;;;;32.41;32.59;100631.66;3255949;86;99176;-83
2022/05/20 12:34:55;;;;;;;5.47;2.60;;;;;;;32.24;32.43;100629.44;3330353;86;98947;-83
2022/05/20 12:39:56;;;;;;;5.53;2.70;;;;;;;32.06;32.32;100612.91;3332147;85;98861;-81
2022/05/20 12:44:57;;;;;;;8.43;3.60;;;;;;;32.35;32.41;100615.20;3322907;86;98685;-82
2022/05/20 12:50:06;;;;;;;7.47;2.80;;;;;;;32.26;31.42;100599.17;3317595;85;99094;-83
2022/05/20 12:55:37;;;;;;;7.17;2.75;;;;;;;32.34;32.00;100595.12;3327165;85;98862;-83
2022/05/20 13:00:50;;;;;;;5.12;3.10;;;;;;;32.29;32.20;100583.89;3329702;85;98760;-85
2022/05/20 13:06:00;;;;;;;4.67;3.12;;;;;;;32.10;30.48;100582.11;3340827;85;98147;-83
2022/05/20 13:11:09;;;;;;;6.53;3.20;;;;;;;31.77;31.11;100571.54;3303640;85;99076;-83
2022/05/20 13:16:16;;;;;;;5.50;3.08;;;;;;;31.58;31.49;100561.97;3352120;85;26224;-82
2022/05/20 13:21:21;;;;;;;5.92;3.20;;;;;;;31.52;31.60;100556.14;3314787;86;99065;-83
2022/05/20 13:26:31;;;;;;;6.47;3.15;;;;;;;31.29;31.64;100554.59;3303110;85;98890;-83
2022/05/20 13:31:32;;;;;;;7.03;3.85;;;;;;;31.06;32.07;100537.36;3324084;85;98940;-80
2022/05/20 13:36:52;;;;;;;5.62;3.30;;;;;;;31.31;32.16;100534.94;3297378;84;98884;-84
2022/05/20 13:41:51;;;;;;;5.70;3.10;;;;;;;31.19;32.06;100533.35;3335496;85;99264;-82
2022/05/20 13:52:20;;;;;;;6.17;3.20;;;;;;;31.09;31.47;100508.66;3315520;86;98793;-83
2022/05/20 13:57:39;;;;;;;9.40;3.40;;;;;;;30.77;31.31;100494.54;3295377;85;99197;-83
2022/05/20 14:02:42;;;;;;;9.23;3.45;;;;;;;30.80;31.55;100489.89;3314013;86;99195;-82
2022/05/20 14:07:48;;;;;;;19.07;4.22;;;;;;;30.82;31.43;100488.73;3339474;86;98927;-82
2022/05/20 14:13:10;;;;;;;6.03;3.10;;;;;;;30.81;30.63;100489.39;3312810;86;99423;-82
2022/05/20 14:18:23;;;;;;;6.25;3.00;;;;;;;30.63;30.46;100475.61;3325225;86;98900;-82
2022/05/20 14:23:28;;;;;;;6.12;3.55;;;;;;;30.56;31.41;100465.42;3295006;85;98933;-82
2022/05/20 14:28:53;;;;;;;5.15;3.08;;;;;;;30.70;31.36;100460.95;3334376;86;98507;-82
2022/05/20 14:34:04;;;;;;;7.65;3.47;;;;;;;30.60;31.81;100453.92;3311677;86;98806;-84
2022/05/20 14:39:13;;;;;;;5.15;3.10;;;;;;;30.61;32.63;100444.74;3322444;86;98738;-84
2022/05/20 14:44:18;;;;;;;7.97;3.12;;;;;;;30.61;32.60;100436.22;3335084;85;98802;-82
2022/05/20 14:49:30;;;;;;;;;;;;;;;30.57;32.39;100435.72;3344171;85;98919;-83
2022/05/20 14:54:39;;;;;;;4.95;3.20;;;;;;;30.29;31.30;100432.80;3327945;85;85177;-83
2022/05/20 14:59:40;;;;;;;4.62;2.80;;;;;;;30.04;32.18;100425.22;3324122;86;99247;-83
2022/05/20 15:04:42;;;;;;;5.37;3.05;;;;;;;29.96;32.08;100418.47;3322404;86;98759;-84
2022/05/20 15:09:44;;;;;;;4.67;2.77;;;;;;;29.71;32.73;100406.64;3344185;85;98763;-83
2022/05/20 15:14:47;;;;;;;6.67;3.30;;;;;;;29.67;32.79;100413.81;3332058;86;98914;-83
2022/05/20 15:19:49;;;;;;;4.70;2.42;;;;;;;29.57;32.04;100414.68;3324805;85;99261;-83
2022/05/20 15:24:50;;;;;;;5.28;2.40;;;;;;;29.35;31.70;100417.35;3306737;86;99289;-83
2022/05/20 15:29:52;;;;;;;8.83;2.60;;;;;;;29.13;31.01;100400.20;3312306;86;99249;-82
2022/05/20 15:34:54;;;;;;;4.50;2.20;;;;;;;28.94;31.28;100393.31;3299992;85;98840;-83
2022/05/20 15:40:24;;;;;;;5.45;2.35;;;;;;;28.88;31.80;100379.74;3335997;85;98818;-83
2022/05/20 15:45:28;;;;;;;5.40;2.55;;;;;;;28.72;31.94;100369.05;3322978;86;98980;-81
2022/05/20 15:50:29;;;;;;;4.90;2.33;;;;;;;28.54;31.97;100361.55;3334729;86;99282;-82
2022/05/20 15:55:36;;;;;;;4.53;2.37;;;;;;;28.15;32.37;100354.09;3333386;86;99267;-82
2022/05/20 16:00:38;;;;;;;10.15;2.60;;;;;;;28.09;33.22;100360.95;3343138;86;99275;-82
2022/05/20 16:05:43;;;;;;;6.17;2.90;;;;;;;28.04;32.90;100354.59;3320096;86;99382;-82
2022/05/20 16:10:51;;;;;;;7.62;2.70;;;;;;;27.96;33.59;100357.73;3298270;87;99077;-82
2022/05/20 16:15:53;;;;;;;5.20;2.90;;;;;;;27.94;32.96;100331.98;3318228;85;99193;-82
2022/05/20 16:20:56;;;;;;;7.47;3.33;;;;;;;27.76;33.48;100328.81;3327088;85;99021;-82
2022/05/20 16:25:59;;;;;;;5.17;2.80;;;;;;;27.63;33.54;100326.97;3337503;85;99252;-82
2022/05/20 16:31:01;;;;;;;6.45;3.08;;;;;;;27.67;34.25;100330.36;3347761;85;98976;-82
2022/05/20 16:36:03;;;;;;;6.50;3.05;;;;;;;27.56;34.10;100308.23;3355442;85;99327;-82
2022/05/20 16:41:06;;;;;;;8.20;2.87;;;;;;;27.42;33.99;100321.83;3341211;85;98840;-82
2022/05/20 16:46:11;;;;;;;5.47;2.30;;;;;;;27.32;34.77;100321.81;3334198;85;98763;-83
2022/05/20 16:51:15;;;;;;;8.83;3.13;;;;;;;27.24;35.20;100315.80;3279401;85;98971;-83
2022/05/20 17:06:41;;;;;;;6.92;2.20;;;;;;;26.97;34.86;100294.21;3328797;85;98910;-83
2022/05/20 17:11:44;;;;;;;5.83;2.70;;;;;;;26.89;35.03;100285.99;3326421;85;99614;-84
2022/05/20 17:16:49;;;;;;;5.53;2.83;;;;;;;26.80;34.82;100274.19;3343606;86;33387;-83
2022/05/20 17:27:14;;;;;;;6.15;2.80;;;;;;;26.56;36.04;100256.64;3306345;87;99499;-82
2022/05/20 17:32:22;;;;;;;8.55;2.70;;;;;;;26.51;36.42;100243.19;3310366;86;99144;-84
2022/05/20 17:37:24;;;;;;;8.20;3.83;;;;;;;26.41;36.12;100235.30;3350112;84;99189;-85
2022/05/20 17:42:27;;;;;;;6.00;2.90;;;;;;;26.28;36.02;100242.70;3307118;86;99389;-85
2022/05/20 17:47:30;;;;;;;4.47;2.33;;;;;;;26.18;36.50;100246.89;3336947;85;31704;-85
2022/05/20 17:52:31;;;;;;;8.15;2.98;;;;;;;26.02;37.04;100231.08;3337839;84;99019;-85
2022/05/20 17:57:32;;;;;;;3.75;2.27;;;;;;;25.93;37.40;100238.24;3328873;86;99364;-86
2022/05/20 18:02:33;;;;;;;6.47;2.50;;;;;;;25.74;38.17;100219.30;3341229;86;99245;-86
2022/05/20 18:07:35;;;;;;;6.92;2.42;;;;;;;25.58;38.86;100202.06;3345835;85;98827;-84
2022/05/20 18:12:36;;;;;;;5.08;2.75;;;;;;;25.47;38.60;100202.64;3337631;85;99203;-84
2022/05/20 18:17:38;;;;;;;7.97;2.37;;;;;;;25.35;39.40;100200.09;3343485;85;99262;-84
2022/05/20 18:22:44;;;;;;;7.40;2.85;;;;;;;25.21;40.09;100185.30;3349144;86;99088;-84
2022/05/20 18:27:43;;;;;;;7.00;2.67;;;;;;;24.99;40.63;100177.20;3358822;85;99183;-84
2022/05/20 18:32:44;;;;;;;6.08;2.58;;;;;;;24.78;40.99;100166.23;3346293;85;99174;-83
2022/05/20 18:43:04;;;;;;;5.60;2.77;;;;;;;24.32;42.34;100138.21;3317409;85;99011;-86
2022/05/20 18:48:07;;;;;;;10.08;3.12;;;;;;;24.06;42.98;100112.57;3330917;86;99117;-86
2022/05/20 18:53:08;;;;;;;7.72;3.20;;;;;;;23.90;43.25;100098.91;3337805;85;98801;-87
2022/05/20 18:58:09;;;;;;;10.55;4.00;;;;;;;23.64;43.94;100084.31;3323476;86;99116;-86
2022/05/20 19:08:30;;;;;;;11.20;5.00;;;;;;;23.26;44.73;100053.98;3340074;86;99005;-86
2022/05/20 19:13:31;;;;;;;9.53;4.42;;;;;;;23.12;45.70;100050.41;3352615;85;99476;-86
2022/05/20 19:18:33;;;;;;;15.18;4.37;;;;;;;22.97;45.89;100045.28;3345863;86;99220;-86
2022/05/20 19:23:38;;;;;;;11.90;4.60;;;;;;;22.74;46.28;100035.33;3346861;86;99369;-84
2022/05/20 19:28:41;;;;;;;11.22;4.80;;;;;;;22.47;46.93;100024.91;3352620;85;25854;-84
2022/05/20 19:33:43;;;;;;;12.90;5.30;;;;;;;22.37;47.36;100009.89;3326519;85;99415;-85
2022/05/20 19:38:44;;;;;;;9.83;4.55;;;;;;;22.28;47.76;99995.89;3336267;85;99059;-86
2022/05/20 19:43:45;;;;;;;11.35;5.17;;;;;;;22.09;48.02;99988.09;3317235;86;98759;-85
2022/05/20 19:48:46;;;;;;;11.75;5.15;;;;;;;22.04;48.57;99986.50;3320384;86;99235;-85
2022/05/20 19:53:48;;;;;;;9.00;4.95;;;;;;;21.91;49.46;99987.27;3316086;86;99370;-83
2022/05/20 20:04:09;;;;;;;10.80;5.45;;;;;;;21.66;49.60;99964.47;3335404;85;98761;-84
2022/05/20 20:09:10;;;;;;;12.43;5.28;;;;;;;21.65;50.17;99954.52;3352642;86;99086;-84
2022/05/20 20:14:12;;;;;;;12.25;5.22;;;;;;;21.55;51.03;99967.53;3330273;86;98861;-84
2022/05/20 20:19:13;;;;;;;13.00;5.85;;;;;;;21.36;51.56;99965.28;3344319;85;99157;-83
2022/05/20 20:29:33;;;;;;;28.40;13.98;;;;;;;21.17;55.28;99997.25;3323726;86;105018;-81
2022/05/20 20:34:34;;;;;;;20.95;8.88;;;;;;;21.13;57.97;100018.20;3338763;85;98895;-82
2022/05/20 20:39:35;;;;;;;20.43;9.38;;;;;;;21.03;58.51;100029.96;3334000;85;98878;-82
2022/05/20 20:44:36;;;;;;;20.55;9.03;;;;;;;20.87;60.13;100037.13;3312144;86;99438;-82
2022/05/20 20:49:38;;;;;;;24.77;10.68;;;;;;;20.71;60.93;100026.77;3342773;85;99519;-83
2022/05/20 20:54:39;;;;;;;19.23;10.38;;;;;;;20.58;62.98;100011.44;3294807;87;99351;-80
2022/05/20 20:59:40;;;;;;;22.17;11.73;;;;;;;20.48;64.56;99971.30;3345193;85;99171;-85
2022/05/20 21:04:42;;;;;;;17.55;10.98;;;;;;;20.19;68.67;99936.59;3342933;86;99138;-85
2022/05/20 21:09:44;;;;;;;16.27;10.55;;;;;;;20.05;67.87;99932.87;3364357;86;98956;-85
2022/05/20 21:14:47;;;;;;;24.67;12.50;;;;;;;20.04;68.18;99936.11;3354497;85;99116;-85
2022/05/20 21:19:49;;;;;;;24.63;11.22;;;;;;;19.91;68.56;99936.17;3367324;85;99325;-86
2022/05/20 21:24:51;;;;;;;22.48;11.95;;;;;;;19.83;68.49;99946.64;3334930;86;99055;-86
2022/05/20 21:29:52;;;;;;;18.95;10.60;;;;;;;19.74;70.39;99934.77;3349511;85;99505;-85
2022/05/20 21:34:53;;;;;;;17.52;10.80;;;;;;;19.69;70.23;99931.16;3359753;86;98596;-86
2022/05/20 21:39:54;;;;;;;20.65;12.85;;;;;;;19.62;70.70;99918.80;3380380;84;98870;-85
2022/05/20 21:44:55;;;;;;;21.12;11.60;;;;;;;19.57;71.84;99892.09;3356389;86;99134;-87
2022/05/20 21:49:57;;;;;;;19.05;11.70;;;;;;;19.54;72.93;99886.79;3348697;86;99455;-86
2022/05/20 21:54:58;;;;;;;16.02;9.78;;;;;;;19.44;74.11;99872.58;3341838;86;99279;-86
2022/05/20 22:00:01;;;;;;;15.88;9.78;;;;;;;19.40;73.68;99862.77;3373109;86;98984;-85
2022/05/20 22:10:22;;;;;;;18.48;10.58;;;;;;;19.41;74.22;99875.48;3355270;86;98903;-85
2022/05/20 22:15:27;;;;;;;14.53;10.43;;;;;;;19.35;75.80;99873.10;3330610;86;98941;-86
2022/05/20 22:20:28;;;;;;;15.63;9.43;;;;;;;19.29;75.28;99861.71;3329433;86;99384;-85
2022/05/20 22:25:30;;;;;;;16.17;9.50;;;;;;;19.29;76.60;99877.06;3356716;85;99250;-84
2022/05/20 22:30:31;;;;;;;13.50;9.50;;;;;;;19.28;76.77;99874.11;3346387;86;98825;-83
2022/05/20 22:35:31;;;;;;;13.83;9.83;;;;;;;19.25;77.64;99875.62;3321934;86;98388;-82
2022/05/20 22:40:33;;;;;;;20.92;13.03;;;;;;;19.21;77.10;99893.87;3328955;85;98573;-79
2022/05/20 22:45:34;;;;;;;20.53;12.80;;;;;;;19.21;80.06;99900.85;3332032;86;98941;-81
2022/05/20 22:50:38;;;;;;;18.67;11.70;;;;;;;19.01;81.80;99831.94;3307517;87;99422;-82
2022/05/20 23:00:58;;;;;;;17.50;9.95;;;;;;;18.86;86.57;99779.23;3328534;86;100551;-83
2022/05/20 23:06:01;;;;;;;19.93;11.03;;;;;;;18.78;84.32;99791.87;3362923;85;99361;-82
2022/05/20 23:11:05;;;;;;;18.27;12.30;;;;;;;18.77;84.15;99779.76;3350382;86;98955;-82
2022/05/20 23:16:10;;;;;;;15.45;12.40;;;;;;;18.81;84.84;99774.86;3320257;87;98926;-83
2022/05/20 23:21:11;;;;;;;17.17;12.27;;;;;;;18.74;85.96;99766.10;3323963;86;99088;-84
2022/05/20 23:26:12;;;;;;;20.92;13.15;;;;;;;18.70;86.81;99757.06;3358246;85;98971;-84
2022/05/20 23:31:18;;;;;;;18.98;14.25;;;;;;;18.63;87.83;99749.57;3343874;86;99550;-84
2022/05/20 23:41:38;;;;;;;17.10;11.65;;;;;;;18.53;89.76;99728.39;3348998;86;98998;-84
2022/05/20 23:46:42;;;;;;;23.70;12.28;;;;;;;18.48;89.89;99728.95;3349045;86;30470;-84
2022/05/20 23:51:46;;;;;;;14.47;9.45;;;;;;;18.45;90.63;99714.50;3357678;85;99245;-86
